Time;durP1;ratioP1;P1;durP2;ratioP2;P2;SDS_P1;SDS_P2;PMS_P1;PMS_P2;Temp;Humidity;BMP_temperature;BMP_pressure;BME280_temperature;BME280_humidity;BME280_pressure;Samples;Min_cycle;Max_cycle;Signal;HPM_P1;HPM_P2
2022/01/15 00:00:24;;;;;;;26.73;23.87;;;3.00;99.90;;;;;;10438212;28;20193;-77
2022/01/15 00:05:26;;;;;;;27.83;24.77;;;3.00;99.90;;;;;;10455160;28;20228;-77
2022/01/15 00:10:29;;;;;;;25.53;22.80;;;3.00;99.90;;;;;;10456245;28;20558;-77
2022/01/15 00:15:36;;;;;;;26.07;23.27;;;3.00;99.90;;;;;;10454558;28;20224;-77
2022/01/15 00:20:39;;;;;;;25.90;23.33;;;2.90;99.90;;;;;;10454965;28;20193;-77
2022/01/15 00:25:41;;;;;;;28.03;23.93;;;2.90;99.90;;;;;;10413411;28;20214;-77
2022/01/15 00:30:44;;;;;;;28.43;25.37;;;2.90;99.90;;;;;;10430952;28;20293;-77
2022/01/15 00:35:46;;;;;;;29.63;25.57;;;2.90;99.90;;;;;;10436481;28;20227;-77
2022/01/15 00:40:48;;;;;;;26.20;23.57;;;2.80;99.90;;;;;;10454204;28;20217;-77
2022/01/15 00:45:52;;;;;;;26.00;22.73;;;2.80;99.90;;;;;;10455409;28;20213;-78
2022/01/15 00:50:54;;;;;;;24.77;22.07;;;2.80;99.90;;;;;;10455105;28;20287;-78
2022/01/15 00:55:59;;;;;;;25.00;22.30;;;2.80;99.90;;;;;;10496902;22;20299;-81
2022/01/15 01:01:03;;;;;;;23.17;20.53;;;2.80;99.90;;;;;;10498779;28;20296;-80
2022/01/15 01:06:05;;;;;;;24.17;19.90;;;2.70;99.90;;;;;;10475162;28;20299;-80
2022/01/15 01:11:11;;;;;;;21.37;19.27;;;2.70;99.90;;;;;;10478631;28;20620;-80
2022/01/15 01:27:02;;;;;;;20.00;17.90;;;2.70;99.90;;;;;;10443895;28;20644;-80
2022/01/15 01:32:11;;;;;;;21.37;19.03;;;2.70;99.90;;;;;;10476905;28;20193;-78
2022/01/15 01:37:17;;;;;;;20.03;17.30;;;2.70;99.90;;;;;;10467675;28;20218;-79
2022/01/15 01:42:38;;;;;;;19.47;17.40;;;2.70;99.90;;;;;;10477622;28;20292;-79
2022/01/15 01:47:43;;;;;;;21.03;18.40;;;2.70;99.90;;;;;;10484617;28;20203;-79
2022/01/15 01:52:47;;;;;;;20.30;17.83;;;2.60;99.90;;;;;;10485528;28;20217;-80
2022/01/15 01:57:53;;;;;;;25.50;22.90;;;2.70;99.90;;;;;;10487103;28;20685;-79
2022/01/15 02:03:01;;;;;;;26.10;22.43;;;2.70;99.90;;;;;;10484213;28;20272;-79
2022/01/15 02:08:05;;;;;;;24.13;21.27;;;2.70;99.90;;;;;;10482234;28;20223;-78
2022/01/15 02:13:19;;;;;;;21.93;19.63;;;2.70;99.90;;;;;;10486251;28;20623;-80
2022/01/15 02:18:25;;;;;;;22.73;18.67;;;2.80;99.90;;;;;;10486664;28;20217;-81
2022/01/15 02:23:43;;;;;;;24.90;22.40;;;2.70;99.90;;;;;;10472865;28;20237;-81
2022/01/15 02:28:58;;;;;;;22.00;19.87;;;2.70;99.90;;;;;;10488620;28;20208;-81
2022/01/15 02:34:03;;;;;;;22.70;19.90;;;2.60;99.90;;;;;;10490477;28;20296;-80
2022/01/15 02:39:07;;;;;;;24.87;20.53;;;2.60;99.90;;;;;;10478506;28;20235;-81
2022/01/15 02:44:16;;;;;;;21.20;19.03;;;2.60;99.90;;;;;;10467350;28;20216;-81
2022/01/15 02:49:36;;;;;;;22.93;20.60;;;2.50;99.90;;;;;;10454928;28;20256;-81
2022/01/15 02:54:39;;;;;;;19.63;17.63;;;2.50;99.90;;;;;;10464344;28;20637;-79
2022/01/15 02:59:42;;;;;;;22.77;19.57;;;2.50;99.90;;;;;;10460455;28;20732;-80
2022/01/15 03:04:44;;;;;;;20.37;18.20;;;2.50;99.90;;;;;;10459934;28;20221;-78
2022/01/15 03:09:47;;;;;;;20.23;18.13;;;2.40;99.90;;;;;;10459341;28;20221;-78
2022/01/15 03:14:50;;;;;;;22.10;19.80;;;2.50;99.90;;;;;;10459282;28;20213;-79
2022/01/15 03:19:52;;;;;;;19.27;17.27;;;2.40;99.90;;;;;;10460037;28;20190;-79
2022/01/15 03:24:56;;;;;;;19.87;17.97;;;2.40;99.90;;;;;;10463361;28;20209;-78
2022/01/15 03:29:58;;;;;;;19.80;17.30;;;2.30;99.90;;;;;;10464106;28;20255;-79
2022/01/15 03:35:00;;;;;;;19.70;17.80;;;2.20;99.90;;;;;;10461021;28;20216;-78
2022/01/15 03:40:04;;;;;;;19.83;17.83;;;2.20;99.90;;;;;;10458563;28;20189;-77
2022/01/15 03:45:08;;;;;;;19.73;17.43;;;2.20;99.90;;;;;;10459210;28;20211;-78
2022/01/15 03:50:11;;;;;;;27.20;19.63;;;2.20;99.90;;;;;;10459313;28;20200;-80
2022/01/15 03:55:16;;;;;;;20.53;18.30;;;2.20;99.90;;;;;;10444174;28;20221;-79
2022/01/15 04:00:20;;;;;;;20.03;17.93;;;2.20;99.90;;;;;;10460803;28;20229;-80
2022/01/15 04:05:23;;;;;;;18.37;16.50;;;2.20;99.90;;;;;;10458775;28;20213;-79
2022/01/15 04:10:27;;;;;;;20.03;17.90;;;2.20;99.90;;;;;;10458348;28;20251;-80
2022/01/15 04:15:29;;;;;;;20.70;18.60;;;2.20;99.90;;;;;;10460890;28;20627;-79
2022/01/15 04:20:31;;;;;;;20.50;18.30;;;2.20;99.90;;;;;;10462767;28;20536;-79
2022/01/15 04:25:35;;;;;;;19.97;17.90;;;2.20;99.90;;;;;;10461281;28;20698;-80
2022/01/15 04:30:40;;;;;;;20.47;18.50;;;2.20;99.90;;;;;;10445247;28;20705;-78
2022/01/15 04:35:42;;;;;;;21.90;19.57;;;2.20;99.90;;;;;;10440235;28;20308;-80
2022/01/15 04:40:45;;;;;;;20.30;18.20;;;2.20;99.90;;;;;;10457509;28;20748;-78
2022/01/15 04:45:48;;;;;;;20.30;18.00;;;2.30;99.90;;;;;;10456935;28;20232;-79
2022/01/15 04:50:50;;;;;;;21.53;19.33;;;2.20;99.90;;;;;;10456848;28;20281;-79
2022/01/15 04:55:53;;;;;;;20.83;18.10;;;2.20;99.90;;;;;;10455835;28;20229;-79
2022/01/15 05:00:55;;;;;;;19.27;17.27;;;2.20;99.90;;;;;;10414768;28;20197;-78
2022/01/15 05:05:57;;;;;;;20.90;18.13;;;2.20;99.90;;;;;;10454491;28;20263;-78
2022/01/15 05:11:11;;;;;;;19.03;17.23;;;2.20;99.90;;;;;;10456885;28;20207;-79
2022/01/15 05:16:13;;;;;;;20.53;18.43;;;2.20;99.90;;;;;;10395342;28;20218;-78
2022/01/15 05:21:15;;;;;;;21.57;17.93;;;2.20;99.90;;;;;;10454726;28;20669;-78
2022/01/15 05:26:18;;;;;;;20.70;18.57;;;2.20;99.90;;;;;;10454064;28;20308;-78
2022/01/15 05:31:21;;;;;;;23.00;19.00;;;2.20;99.90;;;;;;10453867;28;20211;-80
2022/01/15 05:36:23;;;;;;;24.13;20.03;;;2.20;99.90;;;;;;10454586;28;20231;-79
2022/01/15 05:41:26;;;;;;;21.27;19.10;;;2.20;99.90;;;;;;10457425;28;20250;-79
2022/01/15 05:46:28;;;;;;;21.47;19.00;;;2.20;99.90;;;;;;10457926;28;20213;-79
2022/01/15 05:51:31;;;;;;;24.13;19.20;;;2.10;99.90;;;;;;10458803;28;20208;-79
2022/01/15 05:56:34;;;;;;;18.00;16.10;;;2.00;99.90;;;;;;10456598;28;20228;-78
2022/01/15 06:01:37;;;;;;;19.50;17.60;;;2.00;99.90;;;;;;10455319;28;20197;-79
2022/01/15 06:06:39;;;;;;;20.60;18.50;;;2.00;99.90;;;;;;10453596;28;20209;-77
2022/01/15 06:11:43;;;;;;;19.70;17.70;;;2.10;99.90;;;;;;10454913;28;20440;-78
2022/01/15 06:16:45;;;;;;;19.60;17.63;;;2.00;99.90;;;;;;10454341;28;20221;-78
2022/01/15 06:21:47;;;;;;;19.80;17.63;;;2.00;99.90;;;;;;10436396;28;20226;-77
2022/01/15 06:26:51;;;;;;;20.30;17.93;;;2.00;99.90;;;;;;10453789;28;20209;-77
2022/01/15 06:31:54;;;;;;;19.67;17.40;;;2.00;99.90;;;;;;10461473;28;20284;-78
2022/01/15 06:36:56;;;;;;;20.40;17.70;;;2.00;99.90;;;;;;10460756;28;20398;-78
2022/01/15 06:41:59;;;;;;;19.10;17.17;;;2.00;99.90;;;;;;10461287;28;20204;-78
2022/01/15 06:47:01;;;;;;;20.10;18.03;;;2.00;99.90;;;;;;10460575;28;20201;-78
2022/01/15 06:52:04;;;;;;;20.73;18.50;;;2.00;99.90;;;;;;10459688;28;20301;-77
2022/01/15 06:57:07;;;;;;;20.10;18.10;;;2.00;99.90;;;;;;10458059;28;20263;-77
2022/01/15 07:02:10;;;;;;;18.67;16.77;;;2.00;99.90;;;;;;10456563;28;20201;-78
2022/01/15 07:07:13;;;;;;;18.50;16.50;;;2.00;99.90;;;;;;10459590;28;20216;-78
2022/01/15 07:12:16;;;;;;;19.90;17.80;;;2.00;99.90;;;;;;10459871;28;20217;-78
2022/01/15 07:17:18;;;;;;;18.70;16.80;;;2.00;99.90;;;;;;10460523;28;20266;-77
2022/01/15 07:22:20;;;;;;;19.10;16.73;;;2.00;99.90;;;;;;10443473;28;20802;-78
2022/01/15 07:27:24;;;;;;;18.20;16.30;;;2.00;99.90;;;;;;10460061;28;20193;-78
2022/01/15 07:32:26;;;;;;;19.73;17.73;;;2.00;99.90;;;;;;10459741;28;20711;-78
2022/01/15 07:37:28;;;;;;;17.73;16.03;;;2.00;99.90;;;;;;10441513;28;20236;-79
2022/01/15 07:42:35;;;;;;;20.27;18.00;;;2.00;99.90;;;;;;10441684;28;20217;-77
2022/01/15 07:47:38;;;;;;;20.33;18.23;;;2.00;99.90;;;;;;10458915;28;20229;-78
2022/01/15 07:52:40;;;;;;;19.23;17.20;;;2.10;99.90;;;;;;10458452;28;20240;-80
2022/01/15 07:57:45;;;;;;;20.83;18.70;;;2.10;99.90;;;;;;10445370;28;20224;-79
2022/01/15 08:02:47;;;;;;;17.90;16.20;;;2.10;99.90;;;;;;10464439;28;20217;-81
2022/01/15 08:07:49;;;;;;;19.13;17.23;;;2.10;99.90;;;;;;10446252;28;20189;-81
2022/01/15 08:12:53;;;;;;;18.30;16.50;;;2.10;99.90;;;;;;10462751;28;20710;-80
2022/01/15 08:17:55;;;;;;;20.37;18.13;;;2.10;99.90;;;;;;10460202;28;20209;-81
2022/01/15 08:22:57;;;;;;;19.10;17.20;;;2.20;99.90;;;;;;10458970;28;20252;-81
2022/01/15 08:28:01;;;;;;;19.10;17.30;;;2.20;99.90;;;;;;10443824;28;20199;-81
2022/01/15 08:33:03;;;;;;;20.20;18.20;;;2.20;99.90;;;;;;10460056;28;20271;-80
2022/01/15 08:38:05;;;;;;;23.70;19.97;;;2.30;99.90;;;;;;10459336;28;20252;-81
2022/01/15 08:43:09;;;;;;;23.37;20.57;;;2.30;99.90;;;;;;10462769;28;20220;-80
2022/01/15 08:48:11;;;;;;;25.17;22.40;;;2.30;99.90;;;;;;10444976;28;20209;-81
2022/01/15 08:53:16;;;;;;;26.60;23.70;;;2.40;99.90;;;;;;10463830;28;20783;-80
2022/01/15 08:58:20;;;;;;;24.50;22.10;;;2.40;99.90;;;;;;10462345;28;20270;-81
2022/01/15 09:03:23;;;;;;;24.20;21.80;;;2.50;99.90;;;;;;10462588;28;20565;-81
2022/01/15 09:08:26;;;;;;;26.13;23.50;;;2.50;99.90;;;;;;10459415;28;20196;-81
2022/01/15 09:13:30;;;;;;;26.10;23.40;;;2.60;99.90;;;;;;10457265;28;20307;-81
2022/01/15 09:18:34;;;;;;;27.97;24.73;;;2.70;99.90;;;;;;10457279;28;20569;-79
2022/01/15 09:23:36;;;;;;;25.10;22.50;;;2.80;99.90;;;;;;10457934;28;20245;-81
2022/01/15 09:33:59;;;;;;;29.57;25.13;;;3.10;99.90;;;;;;10458232;28;20347;-81
2022/01/15 09:39:01;;;;;;;26.40;23.60;;;3.20;99.90;;;;;;10441927;28;20217;-80
2022/01/15 09:44:06;;;;;;;27.73;24.00;;;3.40;99.90;;;;;;10457978;28;20756;-77
2022/01/15 09:49:10;;;;;;;28.77;24.60;;;3.40;99.90;;;;;;10437704;28;20200;-78
2022/01/15 09:54:14;;;;;;;27.87;24.93;;;3.50;99.90;;;;;;10453873;28;20229;-79
2022/01/15 09:59:18;;;;;;;27.07;24.10;;;3.50;99.90;;;;;;10454890;28;20237;-79
2022/01/15 10:04:23;;;;;;;27.80;24.90;;;3.60;99.90;;;;;;10461500;28;20231;-80
2022/01/15 10:09:27;;;;;;;30.30;26.90;;;3.60;99.90;;;;;;10463940;28;20195;-79
2022/01/15 10:14:32;;;;;;;30.90;27.03;;;3.60;99.90;;;;;;10466222;28;20224;-77
2022/01/15 10:19:36;;;;;;;30.20;27.00;;;3.70;99.90;;;;;;10472061;28;20586;-79
2022/01/15 10:24:39;;;;;;;31.03;27.07;;;3.80;99.90;;;;;;10475427;28;20237;-79
2022/01/15 10:29:43;;;;;;;29.80;26.20;;;3.90;99.90;;;;;;10486387;28;20204;-79
2022/01/15 10:34:45;;;;;;;27.73;24.70;;;3.90;99.90;;;;;;10484455;28;20212;-81
2022/01/15 10:39:56;;;;;;;28.30;25.30;;;3.90;99.90;;;;;;10485167;28;20661;-82
2022/01/15 10:45:07;;;;;;;30.47;27.00;;;4.00;99.90;;;;;;10469786;28;20659;-81
2022/01/15 10:50:10;;;;;;;28.60;25.63;;;4.10;99.90;;;;;;10483865;28;20188;-79
2022/01/15 10:55:15;;;;;;;27.50;24.70;;;4.10;99.90;;;;;;10488158;28;20734;-78
2022/01/15 11:00:21;;;;;;;29.73;26.50;;;4.10;99.90;;;;;;10468213;28;20248;-80
2022/01/15 11:05:35;;;;;;;27.90;25.00;;;4.20;99.90;;;;;;10466048;28;20311;-81
2022/01/15 11:10:41;;;;;;;27.47;24.57;;;4.20;99.90;;;;;;10480730;28;20275;-82
2022/01/15 11:15:46;;;;;;;29.73;26.63;;;4.30;99.90;;;;;;10484299;28;20208;-82
2022/01/15 11:20:56;;;;;;;29.13;26.10;;;4.30;99.90;;;;;;10485526;28;20226;-81
2022/01/15 11:26:00;;;;;;;31.43;26.70;;;4.40;99.90;;;;;;10466853;28;20219;-81
2022/01/15 11:31:12;;;;;;;30.33;27.33;;;4.40;99.90;;;;;;10483535;28;20194;-79
2022/01/15 11:36:30;;;;;;;30.60;27.53;;;4.50;99.90;;;;;;10483513;28;20634;-80
2022/01/15 11:41:46;;;;;;;28.20;25.37;;;4.50;99.90;;;;;;10483802;28;20220;-81
2022/01/15 11:46:56;;;;;;;29.80;26.77;;;4.60;99.90;;;;;;10481339;28;20318;-82
2022/01/15 11:52:45;;;;;;;28.43;25.50;;;4.60;99.90;;;;;;10468090;28;20215;-81
2022/01/15 11:57:50;;;;;;;28.87;25.97;;;4.70;99.90;;;;;;10463129;28;20209;-79
2022/01/15 12:03:13;;;;;;;28.63;25.80;;;4.70;99.90;;;;;;10480959;28;20213;-81
2022/01/15 12:08:32;;;;;;;30.27;27.30;;;4.70;99.90;;;;;;10480828;28;20204;-80
2022/01/15 12:13:55;;;;;;;30.20;27.13;;;4.80;99.90;;;;;;10465417;28;20221;-81
2022/01/15 12:19:00;;;;;;;29.33;26.23;;;4.90;99.90;;;;;;10457035;28;20315;-81
2022/01/15 12:24:36;;;;;;;30.27;27.27;;;4.90;99.90;;;;;;10444018;28;20223;-79
2022/01/15 12:29:39;;;;;;;29.70;26.40;;;5.00;99.90;;;;;;10459857;28;20201;-79
2022/01/15 12:34:46;;;;;;;29.63;26.80;;;5.00;99.90;;;;;;10459170;28;20221;-80
2022/01/15 12:39:49;;;;;;;29.00;26.07;;;5.10;99.90;;;;;;10457967;28;20274;-79
2022/01/15 12:44:53;;;;;;;31.43;28.37;;;5.10;99.90;;;;;;10457433;28;20229;-80
2022/01/15 12:49:57;;;;;;;30.97;27.50;;;5.20;99.90;;;;;;10459184;28;20181;-79
2022/01/15 12:55:00;;;;;;;29.63;26.83;;;5.30;99.90;;;;;;10460586;28;20237;-80
2022/01/15 13:00:03;;;;;;;31.17;27.77;;;5.30;99.90;;;;;;10460487;28;20227;-80
2022/01/15 13:05:10;;;;;;;30.47;27.30;;;5.30;99.90;;;;;;10462627;28;20217;-81
2022/01/15 13:10:29;;;;;;;28.50;25.63;;;5.30;99.90;;;;;;10460999;28;20203;-81
2022/01/15 13:15:32;;;;;;;31.50;28.40;;;5.40;99.90;;;;;;10445867;28;20220;-80
2022/01/15 13:20:36;;;;;;;31.53;28.33;;;5.40;99.90;;;;;;10460295;28;20213;-79
2022/01/15 13:25:38;;;;;;;30.13;27.13;;;5.40;99.90;;;;;;10457191;28;20709;-79
2022/01/15 13:30:40;;;;;;;33.30;29.80;;;5.50;99.90;;;;;;10458072;28;20285;-79
2022/01/15 13:35:44;;;;;;;30.37;27.27;;;5.50;99.90;;;;;;10457643;28;20217;-79
2022/01/15 13:40:48;;;;;;;32.33;28.93;;;5.50;99.90;;;;;;10455900;28;20288;-79
2022/01/15 13:45:51;;;;;;;29.37;26.47;;;5.50;99.90;;;;;;10439961;28;20244;-80
2022/01/15 13:56:20;;;;;;;33.97;28.40;;;5.50;99.90;;;;;;10457178;28;20248;-79
2022/01/15 14:01:26;;;;;;;31.20;27.20;;;5.40;99.90;;;;;;10459158;28;20223;-80
2022/01/15 14:06:40;;;;;;;28.90;26.00;;;5.40;99.90;;;;;;10457837;28;20696;-79
2022/01/15 14:11:59;;;;;;;32.30;28.93;;;5.40;99.90;;;;;;10460076;28;20288;-81
2022/01/15 14:17:03;;;;;;;32.67;29.23;;;5.40;99.90;;;;;;10459355;28;20279;-80
2022/01/15 14:22:22;;;;;;;30.80;27.60;;;5.50;99.90;;;;;;10460554;28;20201;-79
2022/01/15 14:27:25;;;;;;;31.50;28.10;;;5.40;99.90;;;;;;10457271;28;20200;-82
2022/01/15 14:32:27;;;;;;;31.90;28.50;;;5.40;99.90;;;;;;10443507;28;20221;-79
2022/01/15 14:37:30;;;;;;;33.13;29.60;;;5.30;99.90;;;;;;10460137;28;20213;-81
2022/01/15 14:42:33;;;;;;;32.30;28.97;;;5.30;99.90;;;;;;10458985;28;20213;-80
2022/01/15 14:47:35;;;;;;;31.87;28.53;;;5.30;99.90;;;;;;10458962;28;20201;-82
2022/01/15 14:52:38;;;;;;;35.37;31.57;;;5.30;99.90;;;;;;10466580;28;20249;-80
2022/01/15 14:57:41;;;;;;;34.27;30.57;;;5.30;99.90;;;;;;10467120;28;20219;-80
2022/01/15 15:02:43;;;;;;;33.47;29.97;;;5.30;99.90;;;;;;10464778;28;20247;-80
2022/01/15 15:07:49;;;;;;;32.07;28.67;;;5.30;99.90;;;;;;10468319;28;20614;-81
2022/01/15 15:12:56;;;;;;;33.03;29.10;;;5.20;99.90;;;;;;10467321;28;20217;-83
2022/01/15 15:18:01;;;;;;;32.30;28.90;;;5.20;99.90;;;;;;10469674;28;20224;-82
2022/01/15 15:23:04;;;;;;;30.73;27.57;;;5.00;99.90;;;;;;10457620;28;20257;-81
2022/01/15 15:28:07;;;;;;;30.80;27.60;;;4.90;99.90;;;;;;10461017;28;20196;-78
2022/01/15 15:33:09;;;;;;;33.97;30.00;;;4.80;99.90;;;;;;10461560;28;20220;-80
2022/01/15 15:38:13;;;;;;;33.50;29.97;;;4.70;99.90;;;;;;10444766;28;20201;-80
2022/01/15 15:43:15;;;;;;;36.23;32.30;;;4.50;99.90;;;;;;10443839;28;20225;-79
2022/01/15 15:48:17;;;;;;;36.83;33.07;;;4.40;99.90;;;;;;10461605;28;20193;-78
2022/01/15 15:53:21;;;;;;;39.23;35.30;;;4.40;99.90;;;;;;10460347;28;20229;-79
2022/01/15 15:58:23;;;;;;;43.80;39.00;;;4.30;99.90;;;;;;10445240;28;20300;-80
2022/01/15 16:03:25;;;;;;;43.67;39.00;;;4.20;99.90;;;;;;10464674;28;20953;-80
2022/01/15 16:08:28;;;;;;;39.63;35.10;;;4.10;99.90;;;;;;10445986;28;20193;-79
2022/01/15 16:13:34;;;;;;;44.57;39.83;;;4.10;99.90;;;;;;10461929;28;20699;-80
2022/01/15 16:18:38;;;;;;;43.03;35.80;;;4.00;99.90;;;;;;10459767;28;20227;-80
2022/01/15 16:23:41;;;;;;;40.27;35.27;;;3.90;99.90;;;;;;10460891;28;20281;-79
2022/01/15 16:28:44;;;;;;;44.27;37.23;;;3.90;99.90;;;;;;10460338;28;20186;-79
2022/01/15 16:33:46;;;;;;;47.90;42.80;;;3.80;99.90;;;;;;10460799;28;20221;-79
2022/01/15 16:38:50;;;;;;;56.90;46.63;;;3.70;99.90;;;;;;10462205;28;20213;-78
2022/01/15 16:43:53;;;;;;;55.00;45.60;;;3.70;99.90;;;;;;10444196;28;20217;-78
2022/01/15 16:48:55;;;;;;;53.37;45.30;;;3.70;99.90;;;;;;10461925;28;20371;-80
2022/01/15 16:53:58;;;;;;;55.20;43.67;;;3.60;99.90;;;;;;10461994;28;20684;-79
2022/01/15 16:59:00;;;;;;;49.13;42.77;;;3.50;99.90;;;;;;10461980;28;20295;-80
2022/01/15 17:04:03;;;;;;;42.50;36.87;;;3.50;99.90;;;;;;10460286;28;20213;-80
2022/01/15 17:09:07;;;;;;;42.77;36.80;;;3.50;99.90;;;;;;10462754;28;20272;-79
2022/01/15 17:14:09;;;;;;;43.00;38.30;;;3.50;99.90;;;;;;10461791;28;20221;-79
2022/01/15 17:19:11;;;;;;;42.43;36.50;;;3.40;99.90;;;;;;10444866;28;20671;-80
2022/01/15 17:24:14;;;;;;;43.03;38.47;;;3.40;99.90;;;;;;10463309;28;20292;-80
2022/01/15 17:29:17;;;;;;;42.77;37.20;;;3.40;99.90;;;;;;10438398;28;20567;-80
2022/01/15 17:34:19;;;;;;;41.90;35.80;;;3.40;99.90;;;;;;10454841;28;20306;-80
2022/01/15 17:39:25;;;;;;;42.90;37.30;;;3.40;99.90;;;;;;10448437;28;20245;-78
2022/01/15 17:44:28;;;;;;;44.30;36.97;;;3.40;99.90;;;;;;10467964;28;20218;-80
2022/01/15 17:49:31;;;;;;;42.37;35.40;;;3.40;99.90;;;;;;10419842;28;20232;-80
2022/01/15 17:54:34;;;;;;;41.77;37.27;;;3.40;99.90;;;;;;10476480;28;20278;-80
2022/01/15 17:59:36;;;;;;;44.23;38.07;;;3.30;99.90;;;;;;10458551;28;20213;-78
2022/01/15 18:04:38;;;;;;;48.37;39.93;;;3.30;99.90;;;;;;10477668;28;20217;-78
2022/01/15 18:09:45;;;;;;;45.63;40.63;;;3.30;99.90;;;;;;10476861;28;20209;-82
2022/01/15 18:14:50;;;;;;;46.07;40.10;;;3.30;99.90;;;;;;10460486;28;20205;-80
2022/01/15 18:19:53;;;;;;;50.37;44.07;;;3.30;99.90;;;;;;10481286;28;20218;-81
2022/01/15 18:24:56;;;;;;;51.73;42.53;;;3.30;99.90;;;;;;10464024;28;20221;-82
2022/01/15 18:29:59;;;;;;;59.30;50.33;;;3.30;99.90;;;;;;10485494;28;20196;-82
2022/01/15 18:35:01;;;;;;;49.50;42.87;;;3.40;99.90;;;;;;10468520;28;20219;-82
2022/01/15 18:40:05;;;;;;;48.40;41.00;;;3.40;99.90;;;;;;10468626;28;20209;-81
2022/01/15 18:45:09;;;;;;;49.87;42.17;;;3.40;99.90;;;;;;10469105;28;20205;-80
2022/01/15 18:50:13;;;;;;;48.43;40.43;;;3.50;99.90;;;;;;10469177;28;20247;-80
2022/01/15 18:55:17;;;;;;;52.47;44.90;;;3.40;99.90;;;;;;10469824;28;20227;-79
2022/01/15 19:00:21;;;;;;;44.37;39.63;;;3.50;99.90;;;;;;10464203;28;20209;-78
2022/01/15 19:05:23;;;;;;;41.87;37.37;;;3.50;99.90;;;;;;10463258;28;20213;-80
2022/01/15 19:10:27;;;;;;;47.53;37.77;;;3.50;99.90;;;;;;10461263;28;20195;-78
2022/01/15 19:16:38;;;;;;;;;;;;;;;;;;;;;
2022/01/15 19:22:21;;;;;;;48.40;40.73;;;3.60;99.90;;;;;;10333324;28;20234;-79
2022/01/15 19:27:30;;;;;;;45.77;37.07;;;3.50;99.90;;;;;;10457089;28;20193;-79
2022/01/15 19:38:46;;;;;;;50.10;41.47;;;3.50;99.90;;;;;;10445133;28;20217;-80
2022/01/15 19:49:16;;;;;;;47.53;39.97;;;3.40;99.90;;;;;;10459766;28;20204;-81
2022/01/15 19:54:30;;;;;;;43.70;38.27;;;3.30;99.90;;;;;;10464734;28;20233;-79
2022/01/15 19:59:53;;;;;;;44.80;39.90;;;3.30;99.90;;;;;;10461641;28;20221;-80
2022/01/15 20:05:16;;;;;;;44.43;39.60;;;3.30;99.90;;;;;;10459940;28;20217;-78
2022/01/15 20:10:23;;;;;;;51.93;42.70;;;3.30;99.90;;;;;;10457343;28;20195;-78
2022/01/15 20:15:31;;;;;;;46.50;41.37;;;3.30;99.90;;;;;;10460921;28;20221;-78
2022/01/15 20:20:36;;;;;;;44.87;39.97;;;3.30;99.90;;;;;;10461533;28;20221;-80
2022/01/15 20:25:38;;;;;;;42.67;37.33;;;3.40;99.90;;;;;;10442741;28;20637;-78
2022/01/15 20:30:42;;;;;;;46.00;38.50;;;3.40;99.90;;;;;;10457202;28;20232;-80
2022/01/15 20:35:46;;;;;;;50.93;42.40;;;3.40;99.90;;;;;;10458588;28;20221;-78
2022/01/15 20:40:54;;;;;;;47.27;40.93;;;3.40;99.90;;;;;;10444347;28;20243;-80
2022/01/15 20:46:00;;;;;;;46.57;41.37;;;3.50;99.90;;;;;;10460844;28;20727;-80
2022/01/15 20:51:05;;;;;;;47.13;39.27;;;3.50;99.90;;;;;;10461339;28;20197;-79
2022/01/15 20:56:18;;;;;;;43.13;37.23;;;3.60;99.90;;;;;;10447492;28;20232;-78
2022/01/15 21:01:22;;;;;;;49.70;42.00;;;3.70;99.90;;;;;;10445138;28;20281;-80
2022/01/15 21:06:27;;;;;;;47.50;39.63;;;3.80;99.90;;;;;;10459914;28;20217;-79
2022/01/15 21:11:47;;;;;;;46.80;40.43;;;3.80;99.90;;;;;;10457640;28;20285;-79
2022/01/15 21:16:50;;;;;;;49.20;40.07;;;3.90;99.90;;;;;;10443587;28;20227;-81
2022/01/15 21:22:00;;;;;;;49.43;38.90;;;3.90;99.90;;;;;;10462276;28;20217;-80
2022/01/15 21:27:02;;;;;;;50.20;39.30;;;3.90;99.90;;;;;;10445654;28;20710;-81
2022/01/15 21:32:16;;;;;;;47.13;36.63;;;4.00;99.90;;;;;;10457276;28;20639;-78
2022/01/15 21:37:22;;;;;;;45.83;35.43;;;4.00;99.90;;;;;;10442559;28;20259;-82
2022/01/15 21:42:36;;;;;;;50.87;37.47;;;4.10;99.90;;;;;;10463249;28;20217;-79
2022/01/15 21:48:06;;;;;;;49.80;36.53;;;4.10;99.90;;;;;;10418350;28;20194;-80
2022/01/15 21:53:35;;;;;;;47.77;36.67;;;4.00;99.90;;;;;;10460741;28;20684;-80
2022/01/15 21:59:19;;;;;;;44.67;35.70;;;3.90;99.90;;;;;;10460526;28;20208;-81
2022/01/15 22:10:35;;;;;;;41.37;32.90;;;4.00;99.90;;;;;;10525091;28;20679;-81
2022/01/15 22:15:38;;;;;;;47.10;35.77;;;4.10;99.90;;;;;;10520251;28;20267;-80
2022/01/15 22:20:41;;;;;;;45.47;32.50;;;4.10;99.90;;;;;;10505303;28;20653;-79
2022/01/15 22:25:45;;;;;;;39.67;30.50;;;4.20;99.90;;;;;;10493313;28;20223;-80
2022/01/15 22:30:49;;;;;;;42.50;32.27;;;4.20;99.90;;;;;;10521158;28;20255;-81
2022/01/15 22:35:51;;;;;;;42.27;32.57;;;4.10;99.90;;;;;;10530758;28;20664;-80
2022/01/15 22:40:54;;;;;;;42.43;32.43;;;4.10;99.90;;;;;;10514366;28;20211;-80
2022/01/15 22:45:57;;;;;;;46.03;35.00;;;4.10;99.90;;;;;;10514376;28;20661;-81
2022/01/15 22:50:59;;;;;;;39.97;31.97;;;4.10;99.90;;;;;;10513487;28;20246;-80
2022/01/15 22:56:03;;;;;;;39.93;31.30;;;4.10;99.90;;;;;;10534309;28;20276;-80
2022/01/15 23:01:08;;;;;;;42.73;29.87;;;4.20;99.90;;;;;;10490339;28;20212;-81
2022/01/15 23:06:11;;;;;;;37.20;27.07;;;4.20;99.90;;;;;;10515176;28;20224;-82
2022/01/15 23:11:19;;;;;;;33.73;26.30;;;4.20;99.90;;;;;;10506783;28;20184;-80
2022/01/15 23:16:34;;;;;;;29.70;23.20;;;4.10;99.90;;;;;;10483919;28;20216;-80
2022/01/15 23:21:36;;;;;;;27.10;23.33;;;4.00;99.90;;;;;;10484530;28;20221;-77
2022/01/15 23:26:40;;;;;;;26.53;21.50;;;4.00;99.90;;;;;;10496431;28;20212;-78
2022/01/15 23:31:44;;;;;;;28.87;23.40;;;3.90;99.90;;;;;;10520712;28;20196;-79
2022/01/15 23:36:48;;;;;;;28.53;22.80;;;3.80;99.90;;;;;;10486613;28;20692;-77
2022/01/15 23:41:51;;;;;;;27.07;21.77;;;3.70;99.90;;;;;;10540056;28;20220;-78
2022/01/15 23:46:57;;;;;;;23.10;17.30;;;3.60;99.90;;;;;;10518435;28;20208;-77
2022/01/15 23:51:59;;;;;;;25.17;22.00;;;3.60;99.90;;;;;;10500275;28;20210;-77
2022/01/15 23:57:03;;;;;;;25.17;21.60;;;3.60;99.90;;;;;;10519804;28;20192;-78
